-> Other stations

1455

Speed(max): 0(0)knots
Direction:283° ( WNW)
Temperature: 22.2°C
Arrived: 2026-09-05 22:17:28 CEST

Past data:
hh:mmknots
Dir (°)
°C
22:15 0 0 WNW(282) 22.5
22:13 0 0 WNW(283) 22.6
22:11 0 1.1 WNW(283) 22.6
22:09 0 1.1 WNW(283) 22.5
22:07 1.6 2.2 WNW(284) 22.5
22:05 1.6 2.2 WNW(285) 22.3
22:03 1.1 1.6 WNW(285) 22.1
22:01 1.1 1.6 WNW(285) 22.2
21:59 0.5 1.6 WNW(286) 22.3
21:57 0.5 1.6 WNW(284) 22.2
21:55 0.5 1.6 WNW(284) 22.3
21:53 0.5 1.6 WNW(284) 22.5
21:51 0.5 1.6 WNW(285) 22.5
21:49 0.5 1.6 WNW(284) 22.6
15 min. averages:
hh:mmknots
Dir (°)
°C
22:15 0.5 2.2 WNW(284) 22.4
22:00 0.5 1.6 WNW(284) 22.4
21:45 0.5 2.2 WNW(284) 22.7
21:30 0.5 1.6 WNW(284) 23.2
21:15 0.5 2.7 WNW(284) 23.7
21:00 2.2 3.8 WNW(284) 24.1
20:45 1.6 4.9 WNW(296) 24.9
20:30 3.2 4.9 NNE(20) 25.6
20:15 1.6 3.8 SSW(192) 24.9
20:00 2.7 4.3 SSW(201) 25.3
19:45 2.7 4.9 SSW(200) 25.9
19:30 1.6 3.8 SSW(194) 26.7
19:15 1.6 4.3 S(186) 28.2
19:00 0 2.2 SSE(150) 29.2
18:45 1.6 4.3 S(171) 29.8
Stations at HR:
1455
-> Other regions

Desktop view
Data provided by Holfuy.
© Holfuy Weather 2026